createdAt,value
2023-10-20T00:00:51.294Z,94.79
2023-10-20T00:03:18.490Z,93.97
2023-10-20T00:05:45.532Z,96.02
2023-10-20T00:08:12.470Z,96.83
2023-10-20T00:10:40.815Z,97.60
2023-10-20T00:13:07.881Z,100.00
2023-10-20T00:15:35.836Z,100.00
2023-10-20T00:18:05.919Z,97.54
2023-10-20T00:20:32.839Z,100.00
2023-10-20T00:22:59.730Z,100.00
2023-10-20T00:25:26.489Z,97.52
2023-10-20T00:27:53.438Z,95.23
2023-10-20T00:30:20.221Z,98.74
2023-10-20T00:32:47.115Z,97.52
2023-10-20T00:35:15.240Z,96.08
2023-10-20T00:37:42.510Z,94.52
2023-10-20T00:40:11.956Z,94.24
2023-10-20T00:42:39.188Z,94.08
2023-10-20T00:45:08.289Z,96.98
2023-10-20T00:47:38.574Z,95.09
2023-10-20T00:50:07.696Z,95.73
2023-10-20T00:52:37.249Z,94.36
2023-10-20T00:55:05.066Z,98.53
2023-10-20T00:57:33.570Z,97.73
2023-10-20T01:00:00.393Z,99.13
2023-10-20T01:02:31.174Z,99.43
2023-10-20T01:05:01.366Z,98.83
2023-10-20T01:07:28.320Z,100.00
2023-10-20T01:10:00.840Z,96.60
2023-10-20T01:12:28.077Z,96.14
2023-10-20T01:14:54.928Z,100.00
2023-10-20T01:17:21.826Z,98.32
2023-10-20T01:19:48.772Z,100.00
2023-10-20T01:22:15.542Z,98.27
2023-10-20T01:24:42.578Z,97.88
2023-10-20T01:27:09.833Z,98.39
2023-10-20T01:29:36.735Z,100.00
2023-10-20T01:32:04.792Z,100.00
2023-10-20T01:34:32.723Z,100.00
2023-10-20T01:37:00.600Z,100.00
2023-10-20T01:39:27.298Z,100.00
2023-10-20T01:41:54.109Z,100.00
2023-10-20T01:44:20.859Z,100.00
2023-10-20T01:46:50.955Z,100.00
2023-10-20T01:49:19.357Z,99.04
2023-10-20T01:51:46.134Z,100.00
2023-10-20T01:54:13.335Z,100.00
2023-10-20T01:56:40.146Z,100.00
2023-10-20T01:59:07.260Z,100.00
2023-10-20T02:01:34.935Z,100.00
2023-10-20T02:04:01.869Z,100.00
2023-10-20T02:06:29.086Z,100.00
2023-10-20T02:08:56.052Z,100.00
2023-10-20T02:11:22.894Z,100.00
2023-10-20T02:13:49.692Z,97.51
2023-10-20T02:16:16.900Z,98.99
2023-10-20T02:18:44.994Z,100.00
2023-10-20T02:21:11.926Z,100.00
2023-10-20T02:23:41.943Z,100.00
2023-10-20T02:26:10.211Z,98.72
2023-10-20T02:28:38.011Z,100.00
2023-10-20T02:31:18.896Z,99.73
2023-10-20T02:33:46.050Z,99.29
2023-10-20T02:36:17.928Z,100.00
2023-10-20T02:38:44.902Z,100.00
2023-10-20T02:41:11.736Z,100.00
2023-10-20T02:43:38.516Z,100.00
2023-10-20T02:46:05.362Z,100.00
2023-10-20T02:48:32.334Z,100.00
2023-10-20T02:50:59.291Z,100.00
2023-10-20T02:53:26.199Z,100.00
2023-10-20T02:55:53.008Z,100.00
2023-10-20T02:58:19.973Z,100.00
2023-10-20T03:00:48.134Z,100.00
2023-10-20T03:03:15.310Z,100.00
2023-10-20T03:05:46.889Z,100.00
2023-10-20T03:08:14.234Z,99.65
2023-10-20T03:10:41.459Z,100.00
2023-10-20T03:13:08.276Z,100.00
2023-10-20T03:15:35.211Z,100.00
2023-10-20T03:18:02.070Z,100.00
2023-10-20T03:20:34.222Z,100.00
2023-10-20T03:23:02.464Z,100.00
2023-10-20T03:25:32.499Z,100.00
2023-10-20T03:27:59.263Z,100.00
2023-10-20T03:30:26.018Z,100.00
2023-10-20T03:32:52.803Z,100.00
2023-10-20T03:35:19.691Z,100.00
2023-10-20T03:37:46.547Z,100.00
2023-10-20T03:40:17.762Z,100.00
2023-10-20T03:42:45.077Z,100.00
2023-10-20T03:45:15.248Z,100.00
2023-10-20T03:47:45.080Z,100.00
2023-10-20T03:50:17.317Z,100.00
2023-10-20T03:52:48.484Z,100.00
2023-10-20T03:55:16.025Z,99.57
2023-10-20T03:57:44.079Z,100.00
2023-10-20T04:00:19.314Z,100.00
2023-10-20T04:02:48.037Z,100.00
2023-10-20T04:05:16.581Z,100.00
2023-10-20T04:07:44.087Z,100.00
2023-10-20T04:10:11.133Z,100.00
2023-10-20T04:12:40.246Z,100.00
2023-10-20T04:15:16.419Z,99.73
2023-10-20T04:17:57.355Z,100.00
2023-10-20T04:20:25.159Z,100.00
2023-10-20T04:22:52.112Z,100.00
2023-10-20T04:25:24.236Z,100.00
2023-10-20T04:27:51.947Z,100.00
2023-10-20T04:30:38.420Z,100.00
2023-10-20T04:33:24.869Z,100.00
2023-10-20T04:36:11.080Z,100.00
2023-10-20T04:38:56.761Z,100.00
2023-10-20T04:41:42.966Z,100.00
2023-10-20T04:44:15.764Z,100.00
2023-10-20T04:46:55.442Z,99.87
2023-10-20T04:49:42.808Z,100.00
2023-10-20T04:52:28.923Z,99.43
2023-10-20T04:55:01.638Z,99.64
2023-10-20T04:57:47.279Z,100.00
2023-10-20T05:00:14.388Z,100.00
2023-10-20T05:02:52.262Z,100.00
2023-10-20T05:05:41.176Z,100.00
2023-10-20T05:08:14.005Z,100.00
2023-10-20T05:10:43.254Z,98.43
2023-10-20T05:13:10.885Z,99.22
2023-10-20T05:15:41.580Z,99.89
2023-10-20T05:18:16.382Z,99.68
2023-10-20T05:20:44.376Z,100.00
2023-10-20T05:23:17.434Z,98.02
2023-10-20T05:25:50.778Z,99.81
2023-10-20T05:28:18.270Z,97.88
2023-10-20T05:30:46.379Z,100.00
2023-10-20T05:33:13.992Z,100.00
2023-10-20T05:35:41.904Z,97.69
2023-10-20T05:38:09.162Z,100.00
2023-10-20T05:40:36.947Z,97.02
2023-10-20T05:43:06.554Z,96.33
2023-10-20T05:45:41.263Z,100.00
2023-10-20T05:48:09.884Z,99.61
2023-10-20T05:50:39.337Z,99.67
2023-10-20T05:53:07.018Z,99.06
2023-10-20T05:55:34.389Z,100.00
2023-10-20T05:58:02.221Z,100.00
2023-10-20T06:00:29.172Z,100.00
2023-10-20T06:02:56.530Z,99.67
2023-10-20T06:05:23.643Z,99.25
2023-10-20T06:07:50.769Z,100.00
2023-10-20T06:10:23.660Z,100.00
2023-10-20T06:12:54.674Z,100.00
2023-10-20T06:15:22.104Z,100.00
2023-10-20T06:17:50.967Z,100.00
2023-10-20T06:20:19.951Z,100.00
2023-10-20T06:22:47.296Z,100.00
2023-10-20T06:25:14.611Z,99.96
2023-10-20T06:27:45.265Z,100.00
2023-10-20T06:30:16.040Z,100.00
2023-10-20T06:32:44.278Z,100.00
2023-10-20T06:35:11.627Z,100.00
2023-10-20T06:37:44.150Z,100.00
2023-10-20T06:40:16.749Z,99.48
2023-10-20T06:42:46.719Z,99.36
2023-10-20T06:45:13.520Z,99.48
2023-10-20T06:47:44.005Z,97.33
2023-10-20T06:50:12.251Z,97.17
2023-10-20T06:52:39.326Z,97.40
2023-10-20T06:57:36.953Z,96.43
2023-10-20T07:00:05.039Z,93.73
2023-10-20T07:02:32.030Z,98.22
2023-10-20T07:04:59.024Z,92.49
2023-10-20T07:07:25.970Z,94.23
2023-10-20T07:09:52.770Z,98.76
2023-10-20T07:12:19.568Z,93.43
2023-10-20T07:14:46.530Z,84.61
2023-10-20T07:17:13.362Z,83.52
2023-10-20T07:19:40.419Z,87.29
2023-10-20T07:22:07.375Z,88.39
2023-10-20T07:24:35.114Z,88.76
2023-10-20T07:27:03.251Z,82.13
2023-10-20T07:29:30.231Z,80.81
2023-10-20T07:31:57.238Z,78.22
2023-10-20T07:34:24.170Z,74.48
2023-10-20T07:36:50.955Z,77.04
2023-10-20T07:39:17.912Z,74.24
2023-10-20T07:41:45.542Z,78.82
2023-10-20T07:44:17.272Z,77.96
2023-10-20T07:46:44.623Z,75.54
2023-10-20T07:49:14.434Z,78.62
2023-10-20T07:51:41.294Z,77.18
2023-10-20T07:54:10.182Z,79.01
2023-10-20T07:56:37.516Z,78.41
2023-10-20T07:59:05.265Z,72.78
2023-10-20T08:01:32.196Z,73.20
2023-10-20T08:03:59.182Z,68.64
2023-10-20T08:06:26.981Z,70.75
2023-10-20T08:08:54.003Z,70.71
2023-10-20T08:11:20.951Z,72.38
2023-10-20T08:13:51.932Z,74.18
2023-10-20T08:16:21.766Z,81.90
2023-10-20T08:18:49.927Z,82.29
2023-10-20T08:21:17.316Z,76.55
2023-10-20T08:23:44.757Z,74.59
2023-10-20T08:26:17.015Z,70.29
2023-10-20T08:28:44.111Z,70.09
2023-10-20T08:31:15.635Z,72.95
2023-10-20T08:33:42.545Z,72.86
2023-10-20T08:36:13.945Z,76.15
2023-10-20T08:38:42.708Z,76.66
2023-10-20T08:41:15.189Z,77.30
2023-10-20T08:43:43.588Z,74.75
2023-10-20T08:46:12.090Z,72.93
2023-10-20T08:48:42.409Z,73.89
2023-10-20T08:51:11.313Z,70.67
2023-10-20T08:53:39.134Z,71.44
2023-10-20T08:56:08.380Z,75.43
2023-10-20T08:58:36.299Z,73.19
2023-10-20T09:01:04.469Z,72.56
2023-10-20T09:03:42.703Z,71.64
2023-10-20T09:06:13.496Z,72.97
2023-10-20T09:08:41.355Z,77.03
2023-10-20T09:11:13.211Z,88.16
2023-10-20T09:13:41.872Z,87.49
2023-10-20T09:16:10.699Z,83.65
2023-10-20T09:18:50.801Z,88.45
2023-10-20T09:21:20.021Z,90.85
2023-10-20T09:23:57.781Z,85.87
2023-10-20T09:26:26.289Z,80.27
2023-10-20T09:28:57.489Z,86.98
2023-10-20T09:31:26.654Z,82.82
2023-10-20T09:33:53.650Z,80.95
2023-10-20T09:36:21.426Z,76.78
2023-10-20T09:38:56.332Z,72.18
2023-10-20T09:41:25.016Z,73.75
2023-10-20T09:43:54.127Z,74.29
2023-10-20T09:46:21.231Z,72.99
2023-10-20T09:48:52.435Z,74.97
2023-10-20T09:51:21.421Z,75.68
2023-10-20T09:53:50.130Z,75.91
2023-10-20T09:56:18.845Z,70.99
2023-10-20T09:58:45.921Z,66.63
2023-10-20T10:01:16.941Z,65.62
2023-10-20T10:04:00.249Z,60.68
2023-10-20T10:06:27.166Z,57.52
2023-10-20T10:08:54.511Z,55.21
2023-10-20T10:11:27.396Z,56.35
2023-10-20T10:14:02.698Z,56.69
2023-10-20T10:16:30.004Z,55.45
2023-10-20T10:19:07.988Z,55.15
2023-10-20T10:21:39.945Z,52.23
2023-10-20T10:24:18.548Z,58.81
2023-10-20T10:26:52.411Z,60.45
2023-10-20T10:29:49.610Z,59.35
2023-10-20T10:32:22.111Z,62.05
2023-10-20T10:34:57.959Z,61.24
2023-10-20T10:37:36.741Z,53.16
2023-10-20T10:40:11.086Z,57.40
2023-10-20T10:42:39.968Z,56.71
2023-10-20T10:45:35.639Z,60.58
2023-10-20T10:48:12.932Z,57.49
2023-10-20T10:50:49.001Z,56.56
2023-10-20T10:53:16.498Z,59.56
2023-10-20T10:55:43.715Z,62.19
2023-10-20T10:58:13.812Z,59.48
2023-10-20T11:00:41.903Z,59.15
2023-10-20T11:03:10.669Z,60.79
2023-10-20T11:05:38.846Z,63.11
2023-10-20T11:08:07.656Z,63.46
2023-10-20T11:10:37.406Z,66.83
2023-10-20T11:13:09.900Z,66.69
2023-10-20T11:15:37.037Z,69.35
2023-10-20T11:18:06.350Z,67.92
2023-10-20T11:20:42.783Z,68.13
2023-10-20T11:23:10.902Z,56.72
2023-10-20T11:25:38.532Z,50.25
2023-10-20T11:28:05.849Z,54.28
2023-10-20T11:30:36.345Z,51.39
2023-10-20T11:33:04.934Z,52.30
2023-10-20T11:35:32.072Z,54.32
2023-10-20T11:37:59.985Z,54.31
2023-10-20T11:40:29.578Z,53.82
2023-10-20T11:42:57.311Z,45.65
2023-10-20T11:45:24.672Z,47.02
2023-10-20T11:47:52.590Z,49.58
2023-10-20T11:50:24.802Z,48.16
2023-10-20T11:52:51.876Z,48.46
2023-10-20T11:55:19.597Z,43.92
2023-10-20T11:57:46.591Z,45.10
2023-10-20T12:00:15.245Z,44.98
2023-10-20T12:02:42.855Z,47.94
2023-10-20T12:05:10.600Z,48.76
2023-10-20T12:07:38.913Z,49.90
2023-10-20T12:10:06.974Z,47.86
2023-10-20T12:12:35.156Z,46.74
2023-10-20T12:15:02.414Z,42.82
2023-10-20T12:17:29.891Z,43.79
2023-10-20T12:19:56.812Z,42.12
2023-10-20T12:22:24.596Z,44.94
2023-10-20T12:24:51.624Z,45.68
2023-10-20T12:27:18.880Z,47.52
2023-10-20T12:29:45.790Z,46.92
2023-10-20T12:32:14.469Z,47.13
2023-10-20T12:34:41.918Z,44.90
2023-10-20T12:37:09.107Z,47.50
2023-10-20T12:39:36.069Z,46.82
2023-10-20T12:42:06.512Z,43.71
2023-10-20T12:44:37.371Z,44.31
2023-10-20T12:47:04.801Z,43.93
2023-10-20T12:49:34.404Z,44.16
2023-10-20T12:52:01.405Z,43.28
2023-10-20T12:54:28.180Z,46.26
2023-10-20T12:56:55.308Z,46.33
2023-10-20T12:59:22.283Z,46.83
2023-10-20T13:01:49.214Z,46.29
2023-10-20T13:04:16.261Z,46.04
2023-10-20T13:06:58.282Z,46.98
2023-10-20T13:09:27.123Z,47.08
2023-10-20T13:11:54.071Z,47.04
2023-10-20T13:14:21.050Z,46.56
2023-10-20T13:16:48.035Z,47.61
2023-10-20T13:19:15.574Z,47.34
2023-10-20T13:21:43.117Z,48.02
2023-10-20T13:24:10.438Z,46.76
2023-10-20T13:26:37.630Z,47.75
2023-10-20T13:29:05.798Z,47.73
2023-10-20T13:31:35.099Z,48.21
2023-10-20T13:34:03.527Z,49.37
2023-10-20T13:36:30.412Z,49.87
2023-10-20T13:38:57.234Z,46.86
2023-10-20T13:41:25.069Z,46.69
2023-10-20T13:43:52.832Z,47.05
2023-10-20T13:46:20.154Z,48.63
2023-10-20T13:48:48.162Z,50.16
2023-10-20T13:51:15.042Z,49.99
2023-10-20T13:53:42.114Z,49.54
2023-10-20T13:56:09.002Z,50.19
2023-10-20T13:58:35.865Z,49.51
2023-10-20T14:01:03.949Z,48.23
2023-10-20T14:03:31.292Z,46.21
2023-10-20T14:05:58.486Z,48.59
2023-10-20T14:08:26.015Z,52.52
2023-10-20T14:10:55.287Z,53.00
2023-10-20T14:13:22.211Z,54.02
2023-10-20T14:15:50.848Z,54.05
2023-10-20T14:18:18.912Z,53.38
2023-10-20T14:20:46.156Z,54.20
2023-10-20T14:23:18.956Z,54.69
2023-10-20T14:25:46.568Z,54.92
2023-10-20T14:28:13.513Z,55.81
2023-10-20T14:30:40.331Z,56.57
2023-10-20T14:33:07.207Z,55.72
2023-10-20T14:35:37.240Z,56.95
2023-10-20T14:38:04.246Z,56.13
2023-10-20T14:40:31.033Z,56.80
2023-10-20T14:42:57.785Z,55.55
2023-10-20T14:45:24.669Z,56.90
2023-10-20T14:47:51.515Z,56.60
2023-10-20T14:50:18.326Z,55.34
2023-10-20T14:52:45.172Z,55.72
2023-10-20T14:55:12.651Z,56.67
2023-10-20T14:57:39.542Z,57.77
2023-10-20T15:00:17.130Z,58.21
2023-10-20T15:02:44.556Z,59.96
2023-10-20T15:05:11.377Z,58.41
2023-10-20T15:07:38.181Z,56.38
2023-10-20T15:10:05.549Z,58.27
2023-10-20T15:12:32.627Z,58.24
2023-10-20T15:15:00.740Z,59.78
2023-10-20T15:17:28.052Z,59.10
2023-10-20T15:19:55.288Z,58.10
2023-10-20T15:22:22.136Z,58.79
2023-10-20T15:24:49.796Z,58.17
2023-10-20T15:27:19.488Z,59.52
2023-10-20T15:29:47.709Z,58.18
2023-10-20T15:32:16.652Z,57.83
2023-10-20T15:34:43.631Z,57.48
2023-10-20T15:37:10.440Z,57.65
2023-10-20T15:39:47.831Z,58.49
2023-10-20T15:42:17.849Z,57.87
2023-10-20T15:44:44.882Z,57.02
2023-10-20T15:47:11.903Z,57.40
2023-10-20T15:49:38.901Z,56.47
2023-10-20T15:52:05.795Z,57.10
2023-10-20T15:54:35.007Z,58.26
2023-10-20T15:57:02.054Z,58.34
2023-10-20T15:59:29.355Z,59.02
2023-10-20T16:01:56.187Z,59.40
2023-10-20T16:04:23.700Z,59.01
2023-10-20T16:06:50.817Z,57.38
2023-10-20T16:09:19.707Z,58.02
2023-10-20T16:11:46.961Z,55.96
2023-10-20T16:14:13.859Z,57.64
2023-10-20T16:16:40.655Z,54.80
2023-10-20T16:19:07.524Z,55.68
2023-10-20T16:21:34.350Z,56.61
2023-10-20T16:24:01.101Z,56.17
2023-10-20T16:26:28.033Z,55.42
2023-10-20T16:28:54.851Z,55.77
2023-10-20T16:31:21.731Z,56.65
2023-10-20T16:33:48.579Z,55.93
2023-10-20T16:36:15.368Z,58.22
2023-10-20T16:38:42.205Z,57.70
2023-10-20T16:41:09.044Z,57.39
2023-10-20T16:43:35.814Z,57.26
2023-10-20T16:46:05.725Z,56.48
2023-10-20T16:48:33.249Z,57.11
2023-10-20T16:51:01.579Z,57.11
2023-10-20T16:53:28.827Z,56.71
2023-10-20T16:56:00.397Z,59.54
2023-10-20T16:58:30.269Z,58.70
2023-10-20T17:01:07.083Z,60.30
2023-10-20T17:03:35.606Z,59.69
2023-10-20T17:06:06.762Z,57.80
2023-10-20T17:08:34.239Z,57.83
2023-10-20T17:11:05.410Z,57.97
2023-10-20T17:13:33.237Z,57.09
2023-10-20T17:16:07.148Z,58.52
2023-10-20T17:18:34.668Z,59.44
2023-10-20T17:21:05.592Z,59.05
2023-10-20T17:23:32.807Z,59.18
2023-10-20T17:26:00.221Z,58.89
2023-10-20T17:28:27.092Z,59.23
2023-10-20T17:30:58.856Z,60.11
2023-10-20T17:33:29.076Z,58.96
2023-10-20T17:36:04.164Z,59.35
2023-10-20T17:38:31.305Z,62.28
2023-10-20T17:41:05.220Z,63.99
2023-10-20T17:43:32.975Z,60.18
2023-10-20T17:46:11.697Z,59.86
2023-10-20T17:48:38.728Z,60.96
2023-10-20T17:51:06.028Z,62.01
2023-10-20T17:53:33.903Z,61.22
2023-10-20T17:56:05.075Z,60.85
2023-10-20T17:58:31.984Z,61.84
2023-10-20T18:01:09.972Z,61.98
2023-10-20T18:03:38.613Z,64.95
2023-10-20T18:06:09.995Z,63.35
2023-10-20T18:08:38.779Z,61.32
2023-10-20T18:11:10.158Z,59.60
2023-10-20T18:13:44.366Z,61.56
2023-10-20T18:16:16.137Z,62.68
2023-10-20T18:18:46.080Z,64.59
2023-10-20T18:21:13.367Z,61.47
2023-10-20T18:23:43.214Z,60.42
2023-10-20T18:26:10.011Z,60.81
2023-10-20T18:28:37.174Z,69.68
2023-10-20T18:31:12.738Z,69.19
2023-10-20T18:33:39.978Z,66.17
2023-10-20T18:36:07.307Z,64.59
2023-10-20T18:38:34.239Z,67.25
2023-10-20T18:41:02.793Z,63.31
2023-10-20T18:43:30.099Z,63.50
2023-10-20T18:46:00.897Z,69.38
2023-10-20T18:48:28.674Z,67.70
2023-10-20T18:51:05.014Z,73.75
2023-10-20T18:53:31.985Z,72.57
2023-10-20T18:55:58.754Z,70.45
2023-10-20T18:58:25.828Z,68.93
2023-10-20T19:00:55.567Z,67.87
2023-10-20T19:03:22.533Z,66.31
2023-10-20T19:05:50.988Z,62.29
2023-10-20T19:08:17.884Z,62.77
2023-10-20T19:10:45.045Z,63.17
2023-10-20T19:13:12.155Z,63.67
2023-10-20T19:15:39.040Z,65.55
2023-10-20T19:35:44.605Z,79.18
2023-10-20T19:38:13.203Z,78.02
2023-10-20T19:40:39.901Z,75.76
2023-10-20T19:43:06.726Z,75.02
2023-10-20T19:45:33.495Z,75.49
2023-10-20T19:48:00.335Z,75.77
2023-10-20T19:50:27.440Z,78.09
2023-10-20T19:52:54.215Z,77.18
2023-10-20T19:55:20.956Z,78.56
2023-10-20T19:57:48.536Z,76.44
2023-10-20T20:00:19.882Z,77.24
2023-10-20T20:02:46.789Z,80.28
2023-10-20T20:05:13.974Z,78.79
2023-10-20T20:07:41.016Z,78.01
2023-10-20T20:10:09.516Z,79.12
2023-10-20T20:12:36.497Z,77.48
2023-10-20T20:15:03.665Z,77.72
2023-10-20T20:17:30.430Z,78.18
2023-10-20T20:19:57.409Z,76.51
2023-10-20T20:22:24.334Z,72.97
2023-10-20T20:24:51.682Z,75.13
2023-10-20T20:27:20.126Z,76.58
2023-10-20T20:29:46.854Z,76.93
2023-10-20T20:32:13.636Z,80.34
2023-10-20T20:34:40.601Z,81.09
2023-10-20T20:37:07.348Z,79.36
2023-10-20T20:39:34.326Z,78.29
2023-10-20T20:42:02.547Z,76.67
2023-10-20T20:44:31.891Z,78.97
2023-10-20T20:46:58.736Z,86.88
2023-10-20T20:49:25.470Z,84.57
2023-10-20T20:51:52.400Z,84.17
2023-10-20T20:54:19.168Z,85.32
2023-10-20T20:56:45.941Z,85.48
2023-10-20T20:59:12.760Z,83.86
2023-10-20T21:01:40.068Z,85.21
2023-10-20T21:04:07.154Z,83.63
2023-10-20T21:06:37.621Z,83.19
2023-10-20T21:09:06.186Z,81.23
2023-10-20T21:11:33.151Z,78.78
2023-10-20T21:14:00.027Z,78.54
2023-10-20T21:16:26.870Z,79.66
2023-10-20T21:18:54.500Z,79.42
2023-10-20T21:21:23.750Z,78.01
2023-10-20T21:23:50.745Z,78.18
2023-10-20T21:26:17.571Z,78.35
2023-10-20T21:28:44.422Z,82.26
2023-10-20T21:31:11.230Z,82.06
2023-10-20T21:33:38.153Z,85.78
2023-10-20T21:36:05.294Z,82.67
2023-10-20T21:38:32.185Z,81.91
2023-10-20T21:40:59.315Z,83.11
2023-10-20T21:43:26.313Z,82.72
2023-10-20T21:45:57.234Z,81.43
2023-10-20T21:48:24.923Z,78.96
2023-10-20T21:50:59.635Z,77.92
2023-10-20T21:53:26.944Z,79.33
2023-10-20T21:56:04.231Z,78.54
2023-10-20T21:58:32.451Z,76.32
2023-10-20T22:01:00.147Z,76.77
2023-10-20T22:03:28.474Z,77.68
2023-10-20T22:05:55.716Z,80.33
2023-10-20T22:08:23.000Z,76.56
2023-10-20T22:10:50.415Z,77.45
2023-10-20T22:13:17.789Z,77.99
2023-10-20T22:15:44.739Z,78.98
2023-10-20T22:18:12.113Z,78.61
2023-10-20T22:20:39.472Z,76.27
2023-10-20T22:23:06.954Z,76.86
2023-10-20T22:25:34.010Z,77.11
2023-10-20T22:28:00.822Z,78.44
2023-10-20T22:30:27.709Z,84.40
2023-10-20T22:32:54.652Z,82.32
2023-10-20T22:35:21.472Z,84.96
2023-10-20T22:37:49.667Z,88.23
2023-10-20T22:40:17.390Z,89.16
2023-10-20T22:42:44.121Z,89.30
2023-10-20T22:45:11.048Z,89.34
2023-10-20T22:47:38.821Z,87.03
2023-10-20T22:50:08.721Z,88.50
2023-10-20T22:52:36.002Z,86.32
2023-10-20T22:55:05.071Z,88.31
2023-10-20T22:57:33.013Z,86.17
2023-10-20T23:00:00.531Z,87.69
2023-10-20T23:02:27.624Z,84.66
2023-10-20T23:04:54.594Z,80.64
2023-10-20T23:07:21.372Z,82.09
2023-10-20T23:09:48.224Z,82.75
2023-10-20T23:12:16.789Z,82.92
2023-10-20T23:14:43.928Z,82.06
2023-10-20T23:17:10.823Z,82.66
2023-10-20T23:19:37.775Z,82.56
2023-10-20T23:22:05.613Z,83.20
2023-10-20T23:24:32.442Z,86.31
2023-10-20T23:26:59.634Z,84.34
2023-10-20T23:29:26.749Z,81.85
2023-10-20T23:31:53.641Z,80.81
2023-10-20T23:34:20.462Z,83.85
2023-10-20T23:36:47.235Z,85.09
2023-10-20T23:39:14.030Z,84.68
2023-10-20T23:41:40.988Z,87.31
2023-10-20T23:44:07.766Z,86.71
2023-10-20T23:46:34.503Z,89.31
2023-10-20T23:49:01.329Z,88.43
2023-10-20T23:51:28.073Z,90.02
2023-10-20T23:53:54.863Z,87.79
2023-10-20T23:56:21.684Z,86.50
2023-10-20T23:58:48.490Z,81.74
